createdAt,value
2018-09-30T00:00:52.399Z,10.73
2018-09-30T00:03:19.435Z,12.90
2018-09-30T00:05:46.479Z,9.00
2018-09-30T00:08:13.419Z,11.57
2018-09-30T00:10:40.343Z,11.77
2018-09-30T00:13:07.295Z,7.57
2018-09-30T00:15:34.179Z,10.37
2018-09-30T00:18:01.077Z,14.10
2018-09-30T00:20:27.980Z,10.40
2018-09-30T00:22:55.903Z,12.00
2018-09-30T00:25:28.548Z,10.17
2018-09-30T00:27:56.052Z,10.63
2018-09-30T00:30:22.968Z,8.30
2018-09-30T00:32:50.177Z,12.53
2018-09-30T00:35:17.072Z,12.77
2018-09-30T00:37:43.974Z,9.40
2018-09-30T00:40:10.906Z,9.90
2018-09-30T00:42:37.857Z,10.37
2018-09-30T00:45:04.854Z,10.73
2018-09-30T00:47:32.088Z,12.97
2018-09-30T00:49:58.982Z,9.77
2018-09-30T00:52:25.857Z,11.10
2018-09-30T00:54:52.761Z,9.77
2018-09-30T00:57:19.644Z,8.50
2018-09-30T00:59:46.574Z,11.87
2018-09-30T01:02:13.475Z,14.43
2018-09-30T01:04:40.396Z,8.40
2018-09-30T01:07:07.299Z,10.57
2018-09-30T01:09:34.191Z,11.87
2018-09-30T01:12:01.113Z,8.07
2018-09-30T01:14:27.983Z,6.63
2018-09-30T01:16:54.941Z,8.27
2018-09-30T01:19:21.851Z,9.13
2018-09-30T01:21:48.787Z,11.17
2018-09-30T01:24:15.693Z,9.67
2018-09-30T01:26:42.575Z,10.03
2018-09-30T01:29:09.489Z,7.90
2018-09-30T01:31:36.391Z,8.67
2018-09-30T01:34:03.330Z,8.33
2018-09-30T01:36:30.232Z,7.50
2018-09-30T01:38:57.129Z,7.27
2018-09-30T01:41:24.145Z,6.40
2018-09-30T01:43:51.058Z,8.90
2018-09-30T01:46:18.040Z,12.43
2018-09-30T01:53:40.097Z,10.20
2018-09-30T01:56:07.017Z,8.70
2018-09-30T01:58:33.911Z,8.60
2018-09-30T02:01:00.821Z,8.37
2018-09-30T02:03:27.783Z,8.90
2018-09-30T02:05:54.769Z,10.40
2018-09-30T02:08:21.700Z,8.00
2018-09-30T02:10:48.595Z,9.37
2018-09-30T02:13:15.464Z,8.37
2018-09-30T02:15:42.389Z,6.03
2018-09-30T02:18:09.343Z,8.47
2018-09-30T02:20:36.246Z,7.50
2018-09-30T02:23:03.166Z,8.40
2018-09-30T02:25:30.123Z,10.17
2018-09-30T02:27:57.060Z,8.67
2018-09-30T02:35:18.194Z,8.90
2018-09-30T02:37:45.058Z,8.93
2018-09-30T02:40:11.957Z,11.33
2018-09-30T02:42:38.887Z,7.60
2018-09-30T02:45:05.839Z,9.47
2018-09-30T02:47:32.703Z,7.00
2018-09-30T02:49:59.666Z,8.43
2018-09-30T02:52:26.681Z,8.77
2018-09-30T02:54:53.595Z,9.17
2018-09-30T02:57:20.576Z,8.63
2018-09-30T02:59:47.539Z,8.00
2018-09-30T03:02:14.458Z,10.23
2018-09-30T03:04:41.347Z,8.17
2018-09-30T03:07:13.956Z,9.53
2018-09-30T03:09:42.359Z,9.53
2018-09-30T03:12:09.392Z,7.70
2018-09-30T03:14:36.306Z,9.80
2018-09-30T03:17:03.240Z,8.40
2018-09-30T03:19:30.129Z,10.00
2018-09-30T03:21:57.065Z,9.40
2018-09-30T03:24:24.003Z,9.27
2018-09-30T03:26:50.914Z,7.23
2018-09-30T03:29:17.868Z,9.87
2018-09-30T03:31:44.894Z,11.87
2018-09-30T03:34:11.858Z,10.60
2018-09-30T03:36:38.784Z,9.77
2018-09-30T03:39:07.070Z,8.23
2018-09-30T03:41:34.055Z,8.87
2018-09-30T03:44:01.007Z,10.50
2018-09-30T03:46:28.000Z,12.23
2018-09-30T03:48:54.989Z,9.83
2018-09-30T03:51:22.689Z,9.87
2018-09-30T03:53:49.617Z,10.73
2018-09-30T03:56:17.135Z,7.63
2018-09-30T03:58:44.113Z,9.47
2018-09-30T04:01:11.120Z,9.73
2018-09-30T04:03:38.039Z,9.13
2018-09-30T04:06:04.974Z,12.07
2018-09-30T04:08:31.916Z,7.10
2018-09-30T04:10:58.815Z,10.60
2018-09-30T04:13:25.842Z,10.00
2018-09-30T04:15:53.129Z,12.30
2018-09-30T04:18:20.122Z,11.47
2018-09-30T04:20:47.065Z,8.33
2018-09-30T04:23:13.992Z,9.33
2018-09-30T04:25:40.932Z,7.77
2018-09-30T04:28:07.872Z,9.47
2018-09-30T04:30:34.834Z,11.97
2018-09-30T04:33:01.765Z,8.60
2018-09-30T04:35:28.708Z,7.30
2018-09-30T04:37:55.715Z,10.07
2018-09-30T04:40:23.565Z,10.00
2018-09-30T04:42:50.518Z,8.40
2018-09-30T04:45:17.475Z,8.67
2018-09-30T04:47:44.379Z,8.10
2018-09-30T04:50:11.375Z,10.07
2018-09-30T04:52:38.223Z,8.87
2018-09-30T04:55:05.255Z,7.53
2018-09-30T04:57:32.234Z,9.77
2018-09-30T04:59:59.143Z,7.67
2018-09-30T05:02:26.105Z,9.93
2018-09-30T05:04:53.121Z,10.07
2018-09-30T05:07:20.089Z,8.63
2018-09-30T05:09:47.032Z,12.43
2018-09-30T05:12:13.924Z,8.33
2018-09-30T05:14:40.844Z,8.23
2018-09-30T05:17:07.742Z,10.03
2018-09-30T05:19:34.658Z,9.30
2018-09-30T05:22:01.610Z,10.23
2018-09-30T05:24:28.525Z,8.70
2018-09-30T05:26:55.502Z,10.57
2018-09-30T05:29:22.432Z,8.57
2018-09-30T05:31:49.388Z,7.57
2018-09-30T05:34:16.291Z,9.63
2018-09-30T05:36:43.155Z,8.43
2018-09-30T05:39:10.833Z,10.33
2018-09-30T05:41:37.820Z,9.07
2018-09-30T05:44:05.291Z,9.70
2018-09-30T05:46:32.199Z,8.07
2018-09-30T05:48:59.140Z,10.83
2018-09-30T05:51:26.108Z,8.43
2018-09-30T05:53:52.978Z,9.10
2018-09-30T05:56:19.879Z,8.73
2018-09-30T05:58:46.794Z,10.13
2018-09-30T06:01:13.716Z,8.23
2018-09-30T06:03:40.584Z,12.03
2018-09-30T06:06:07.609Z,10.37
2018-09-30T06:08:34.529Z,13.67
2018-09-30T06:11:02.306Z,12.03
2018-09-30T06:14:32.594Z,11.10
2018-09-30T06:16:59.495Z,13.50
2018-09-30T06:19:26.474Z,12.40
2018-09-30T06:21:53.401Z,9.83
2018-09-30T06:24:20.359Z,7.03
2018-09-30T06:26:47.246Z,8.33
2018-09-30T06:29:14.384Z,8.20
2018-09-30T06:31:41.449Z,9.73
2018-09-30T06:34:08.349Z,9.27
2018-09-30T06:36:36.529Z,9.80
2018-09-30T06:39:06.640Z,7.83
2018-09-30T06:41:33.638Z,10.73
2018-09-30T06:44:00.548Z,12.53
2018-09-30T06:46:27.461Z,8.60
2018-09-30T06:48:54.506Z,13.07
2018-09-30T06:51:21.445Z,12.50
2018-09-30T06:53:48.348Z,8.53
2018-09-30T06:56:15.266Z,11.43
2018-09-30T06:58:43.000Z,11.47
2018-09-30T07:01:09.976Z,17.23
2018-09-30T07:03:36.970Z,9.00
2018-09-30T07:06:03.960Z,8.87
2018-09-30T07:08:30.928Z,9.23
2018-09-30T07:10:57.929Z,9.77
2018-09-30T07:13:24.863Z,9.63
2018-09-30T07:15:51.859Z,9.70
2018-09-30T07:18:18.907Z,7.67
2018-09-30T07:20:45.899Z,13.80
2018-09-30T07:23:12.869Z,9.03
2018-09-30T07:25:39.835Z,10.13
2018-09-30T07:28:07.025Z,10.10
2018-09-30T07:30:33.974Z,6.43
2018-09-30T07:33:00.899Z,15.57
2018-09-30T07:40:23.580Z,12.07
2018-09-30T07:42:50.545Z,12.13
2018-09-30T07:45:17.484Z,13.97
2018-09-30T07:47:44.424Z,12.37
2018-09-30T07:50:11.454Z,12.00
2018-09-30T07:52:38.434Z,13.37
2018-09-30T07:55:05.381Z,11.40
2018-09-30T07:57:32.318Z,11.37
2018-09-30T07:59:59.260Z,9.40
2018-09-30T08:02:26.218Z,8.33
2018-09-30T08:04:53.179Z,9.27
2018-09-30T08:07:20.131Z,12.90
2018-09-30T08:09:47.071Z,15.37
2018-09-30T08:12:14.013Z,25.37
2018-09-30T08:14:40.977Z,11.63
2018-09-30T08:17:08.101Z,8.00
2018-09-30T08:19:35.018Z,7.97
2018-09-30T08:22:01.969Z,8.17
2018-09-30T08:24:28.872Z,9.13
2018-09-30T08:26:55.841Z,8.13
2018-09-30T08:29:22.735Z,9.80
2018-09-30T08:31:49.600Z,9.23
2018-09-30T08:34:16.566Z,12.37
2018-09-30T08:36:43.466Z,13.60
2018-09-30T08:39:10.346Z,9.87
2018-09-30T08:41:37.292Z,8.13
2018-09-30T08:44:04.298Z,7.80
2018-09-30T08:46:31.259Z,8.60
2018-09-30T08:48:58.151Z,9.73
2018-09-30T08:51:25.060Z,9.78
2018-09-30T08:53:51.984Z,10.10
2018-09-30T08:56:18.857Z,8.50
2018-09-30T08:58:45.799Z,9.33
2018-09-30T09:01:12.744Z,6.77
2018-09-30T09:03:39.675Z,6.93
2018-09-30T09:06:06.590Z,8.23
2018-09-30T09:08:33.498Z,7.20
2018-09-30T09:11:00.468Z,10.23
2018-09-30T09:13:27.349Z,12.03
2018-09-30T09:15:54.270Z,13.73
2018-09-30T09:18:21.211Z,8.63
2018-09-30T09:20:48.086Z,7.13
2018-09-30T09:23:14.982Z,8.00
2018-09-30T09:25:42.142Z,6.60
2018-09-30T09:28:09.356Z,7.97
2018-09-30T09:30:36.226Z,8.10
2018-09-30T09:33:03.132Z,7.43
2018-09-30T09:35:30.052Z,13.97
2018-09-30T09:37:56.954Z,11.40
2018-09-30T09:40:23.832Z,12.60
2018-09-30T09:42:50.782Z,10.17
2018-09-30T09:45:17.696Z,9.20
2018-09-30T09:47:44.580Z,7.37
2018-09-30T09:50:11.503Z,7.27
2018-09-30T09:52:38.487Z,7.23
2018-09-30T09:55:05.318Z,7.73
2018-09-30T09:57:32.290Z,9.13
2018-09-30T09:59:59.216Z,5.50
2018-09-30T10:02:26.136Z,5.13
2018-09-30T10:04:53.044Z,9.73
2018-09-30T10:07:20.026Z,11.83
2018-09-30T10:09:46.960Z,7.43
2018-09-30T10:12:13.876Z,9.80
2018-09-30T10:14:40.764Z,8.97
2018-09-30T10:17:07.717Z,5.93
2018-09-30T10:19:34.653Z,8.90
2018-09-30T10:22:02.382Z,7.43
2018-09-30T10:24:29.460Z,9.33
2018-09-30T10:26:56.355Z,12.23
2018-09-30T10:29:23.312Z,9.37
2018-09-30T10:31:50.315Z,11.63
2018-09-30T10:34:17.219Z,7.80
2018-09-30T10:36:44.175Z,6.27
2018-09-30T10:39:11.464Z,7.80
2018-09-30T10:41:41.521Z,7.53
2018-09-30T10:44:09.452Z,5.60
2018-09-30T10:46:36.671Z,5.20
2018-09-30T10:49:03.911Z,6.33
2018-09-30T10:51:30.988Z,7.17
2018-09-30T10:53:58.393Z,9.08
2018-09-30T10:56:25.530Z,7.43
2018-09-30T10:58:52.497Z,6.13
2018-09-30T11:01:19.610Z,5.40
2018-09-30T11:03:46.752Z,11.97
2018-09-30T11:06:13.853Z,11.60
2018-09-30T11:08:41.514Z,8.18
2018-09-30T11:11:08.679Z,7.20
2018-09-30T11:13:35.828Z,8.83
2018-09-30T11:16:02.948Z,7.60
2018-09-30T11:18:30.712Z,9.05
2018-09-30T11:20:57.740Z,8.75
2018-09-30T11:23:25.054Z,7.75
2018-09-30T11:25:52.019Z,10.85
2018-09-30T11:28:19.080Z,8.33
2018-09-30T11:30:46.265Z,7.62
2018-09-30T11:33:13.204Z,6.30
2018-09-30T11:38:42.400Z,10.97
2018-09-30T11:41:09.635Z,10.73
2018-09-30T11:43:36.661Z,13.15
2018-09-30T11:46:04.105Z,8.77
2018-09-30T11:48:31.187Z,11.50
2018-09-30T11:50:58.180Z,11.12
2018-09-30T11:53:25.303Z,8.48
2018-09-30T11:55:52.295Z,9.68
2018-09-30T11:58:19.306Z,10.10
2018-09-30T12:00:46.586Z,7.83
2018-09-30T12:03:13.617Z,7.22
2018-09-30T12:05:40.680Z,6.65
2018-09-30T12:08:07.698Z,6.72
2018-09-30T12:10:34.760Z,7.78
2018-09-30T12:13:02.461Z,6.95
2018-09-30T12:15:29.576Z,9.18
2018-09-30T12:17:56.632Z,5.83
2018-09-30T12:20:23.617Z,5.83
2018-09-30T12:22:51.169Z,6.53
2018-09-30T12:25:18.143Z,6.85
2018-09-30T12:27:45.140Z,8.18
2018-09-30T12:30:12.140Z,5.62
2018-09-30T12:32:39.069Z,8.30
2018-09-30T12:35:06.358Z,5.62
2018-09-30T12:37:33.485Z,8.83
2018-09-30T12:40:00.463Z,6.80
2018-09-30T12:42:27.589Z,5.83
2018-09-30T12:44:54.729Z,6.08
2018-09-30T12:47:21.733Z,5.00
2018-09-30T12:49:48.716Z,4.47
2018-09-30T12:52:15.665Z,8.33
2018-09-30T12:54:42.621Z,6.75
2018-09-30T12:57:10.320Z,9.68
2018-09-30T12:59:37.922Z,7.70
2018-09-30T13:02:04.950Z,8.78
2018-09-30T13:04:33.261Z,10.08
2018-09-30T13:07:00.243Z,8.95
2018-09-30T13:09:27.244Z,5.53
2018-09-30T13:11:54.194Z,10.43
2018-09-30T13:14:21.209Z,8.13
2018-09-30T13:16:48.222Z,6.80
2018-09-30T13:19:15.336Z,6.10
2018-09-30T13:21:42.271Z,6.72
2018-09-30T13:24:09.297Z,17.50
2018-09-30T13:26:36.245Z,14.65
2018-09-30T13:29:03.214Z,12.03
2018-09-30T13:31:30.261Z,6.67
2018-09-30T13:33:57.265Z,5.35
2018-09-30T13:36:24.191Z,8.90
2018-09-30T13:38:51.216Z,9.75
2018-09-30T13:41:18.323Z,8.88
2018-09-30T13:43:45.271Z,10.85
2018-09-30T13:46:12.477Z,5.67
2018-09-30T13:48:39.474Z,5.62
2018-09-30T13:51:07.121Z,7.65
2018-09-30T13:53:34.127Z,6.45
2018-09-30T13:56:01.088Z,6.47
2018-09-30T13:58:28.109Z,7.58
2018-09-30T14:00:55.053Z,6.92
2018-09-30T14:03:22.160Z,8.15
2018-09-30T14:05:49.140Z,8.70
2018-09-30T14:08:16.186Z,5.92
2018-09-30T14:10:43.158Z,6.05
2018-09-30T14:13:10.140Z,6.30
2018-09-30T14:15:37.137Z,3.65
2018-09-30T14:18:04.147Z,7.37
2018-09-30T14:20:31.545Z,4.60
2018-09-30T14:22:58.545Z,6.22
2018-09-30T14:25:25.504Z,6.47
2018-09-30T14:27:52.504Z,7.62
2018-09-30T14:30:19.566Z,8.18
2018-09-30T14:32:46.529Z,6.92
2018-09-30T14:35:13.536Z,10.60
2018-09-30T14:37:40.583Z,8.68
2018-09-30T14:40:07.962Z,5.37
2018-09-30T14:42:35.001Z,7.10
2018-09-30T14:45:01.948Z,5.37
2018-09-30T14:47:28.993Z,4.92
2018-09-30T14:49:56.028Z,5.58
2018-09-30T14:52:23.016Z,10.08
2018-09-30T14:54:49.976Z,10.68
2018-09-30T14:57:16.930Z,10.88
2018-09-30T14:59:44.012Z,7.67
2018-09-30T15:02:10.948Z,9.38
2018-09-30T15:04:37.913Z,9.30
2018-09-30T15:07:04.871Z,10.03
2018-09-30T15:09:31.850Z,11.33
2018-09-30T15:11:58.797Z,10.40
2018-09-30T15:14:25.769Z,7.42
2018-09-30T15:21:47.555Z,8.65
2018-09-30T15:24:14.587Z,9.05
2018-09-30T15:26:41.535Z,9.85
2018-09-30T15:29:08.559Z,5.45
2018-09-30T15:31:35.531Z,6.70
2018-09-30T15:34:02.669Z,5.83
2018-09-30T15:36:29.686Z,10.90
2018-09-30T15:38:56.875Z,9.50
2018-09-30T15:41:23.917Z,4.87
2018-09-30T15:43:51.153Z,10.70
2018-09-30T15:46:18.162Z,6.62
2018-09-30T15:48:45.255Z,7.22
2018-09-30T15:51:12.191Z,8.63
2018-09-30T15:53:39.171Z,7.20
2018-09-30T15:56:06.196Z,11.08
2018-09-30T15:58:33.188Z,7.97
2018-09-30T16:01:00.179Z,8.03
2018-09-30T16:03:27.127Z,5.75
2018-09-30T16:05:54.041Z,6.47
2018-09-30T16:08:21.053Z,6.45
2018-09-30T16:10:48.078Z,5.30
2018-09-30T16:13:15.122Z,5.83
2018-09-30T16:15:42.148Z,5.23
2018-09-30T16:18:09.184Z,5.92
2018-09-30T16:20:36.203Z,7.22
2018-09-30T16:23:03.241Z,5.97
2018-09-30T16:25:30.216Z,5.70
2018-09-30T16:27:57.265Z,5.23
2018-09-30T16:30:24.238Z,4.53
2018-09-30T16:32:51.266Z,6.87
2018-09-30T16:35:18.339Z,6.85
2018-09-30T16:37:45.375Z,6.80
2018-09-30T16:40:12.409Z,6.20
2018-09-30T16:42:39.569Z,5.70
2018-09-30T16:45:06.597Z,6.53
2018-09-30T16:47:33.645Z,5.10
2018-09-30T16:50:00.584Z,9.50
2018-09-30T16:52:27.608Z,5.97
2018-09-30T16:54:54.747Z,8.93
2018-09-30T16:57:21.707Z,5.37
2018-09-30T16:59:48.667Z,6.80
2018-09-30T17:02:15.612Z,7.53
2018-09-30T17:04:42.611Z,7.53
2018-09-30T17:07:09.611Z,6.70
2018-09-30T17:09:37.093Z,9.30
2018-09-30T17:12:04.060Z,6.37
2018-09-30T17:14:31.001Z,6.03
2018-09-30T17:16:57.990Z,9.23
2018-09-30T17:19:24.987Z,10.20
2018-09-30T17:21:51.971Z,12.43
2018-09-30T17:24:19.943Z,9.17
2018-09-30T17:26:46.910Z,10.23
2018-09-30T17:29:13.886Z,10.03
2018-09-30T17:31:40.869Z,10.13
2018-09-30T17:34:07.879Z,9.50
2018-09-30T17:36:34.945Z,11.13
2018-09-30T17:39:01.941Z,10.67
2018-09-30T17:41:28.943Z,11.43
2018-09-30T17:43:56.070Z,11.27
2018-09-30T17:46:23.007Z,12.50
2018-09-30T17:48:50.062Z,14.20
2018-09-30T17:56:15.844Z,48.33
2018-09-30T17:58:42.928Z,33.38
2018-09-30T18:01:09.920Z,22.90
2018-09-30T18:03:37.015Z,19.03
2018-09-30T18:06:03.968Z,17.10
2018-09-30T18:08:30.996Z,40.33
2018-09-30T18:10:58.050Z,29.83
2018-09-30T18:13:25.096Z,31.10
2018-09-30T18:15:52.076Z,34.43
2018-09-30T18:18:19.098Z,44.67
2018-09-30T18:20:46.081Z,38.70
2018-09-30T18:23:13.011Z,31.23
2018-09-30T18:25:39.955Z,32.80
2018-09-30T18:28:07.057Z,35.57
2018-09-30T18:30:34.029Z,29.20
2018-09-30T18:33:01.979Z,32.97
2018-09-30T18:35:28.986Z,35.17
2018-09-30T18:37:57.005Z,39.00
2018-09-30T18:40:24.120Z,44.73
2018-09-30T18:42:51.126Z,51.50
2018-09-30T18:45:18.397Z,64.93
2018-09-30T18:47:45.566Z,84.60
2018-09-30T18:50:14.168Z,59.70
2018-09-30T18:52:41.237Z,60.73
2018-09-30T18:55:08.974Z,57.83
2018-09-30T18:57:36.444Z,60.70
2018-09-30T19:00:03.753Z,69.83
2018-09-30T19:02:31.096Z,77.33
2018-09-30T19:04:58.091Z,81.27
2018-09-30T19:07:25.180Z,78.47
2018-09-30T19:09:54.184Z,87.13
2018-09-30T19:12:21.367Z,72.47
2018-09-30T19:14:48.716Z,81.67
2018-09-30T19:17:15.785Z,76.33
2018-09-30T19:19:42.833Z,58.17
2018-09-30T19:22:10.952Z,54.73
2018-09-30T19:24:37.953Z,62.10
2018-09-30T19:27:05.060Z,50.93
2018-09-30T19:29:32.139Z,47.80
2018-09-30T19:31:59.844Z,36.53
2018-09-30T19:34:26.967Z,39.27
2018-09-30T19:36:53.984Z,36.27
2018-09-30T19:39:21.030Z,36.20
2018-09-30T19:41:48.359Z,35.93
2018-09-30T19:44:15.218Z,32.80
2018-09-30T19:46:48.368Z,31.57
2018-09-30T19:49:16.014Z,28.73
2018-09-30T19:51:43.038Z,33.00
2018-09-30T19:54:10.721Z,29.07
2018-09-30T19:56:37.729Z,28.33
2018-09-30T19:59:04.735Z,32.77
2018-09-30T20:01:31.947Z,30.50
2018-09-30T20:03:58.999Z,26.67
2018-09-30T20:06:26.980Z,23.30
2018-09-30T20:08:54.154Z,22.00
2018-09-30T20:11:23.643Z,24.63
2018-09-30T20:13:51.890Z,26.03
2018-09-30T20:16:19.010Z,24.90
2018-09-30T20:18:46.130Z,20.17
2018-09-30T20:21:13.100Z,25.73
2018-09-30T20:23:40.315Z,23.03
2018-09-30T20:26:07.245Z,22.33
2018-09-30T20:28:34.900Z,23.07
2018-09-30T20:31:01.912Z,27.80
2018-09-30T20:33:28.889Z,22.13
2018-09-30T20:35:55.882Z,26.70
2018-09-30T20:38:22.944Z,25.00
2018-09-30T20:40:49.858Z,29.17
2018-09-30T20:43:17.387Z,19.70
2018-09-30T20:45:45.352Z,26.67
2018-09-30T20:48:13.019Z,21.67
2018-09-30T20:50:40.090Z,26.50
2018-09-30T20:53:07.686Z,20.53
2018-09-30T20:55:35.056Z,21.00
2018-09-30T20:58:02.172Z,26.53
2018-09-30T21:00:30.186Z,22.90
2018-09-30T21:02:57.400Z,20.90
2018-09-30T21:06:32.737Z,20.37
2018-09-30T21:08:59.748Z,20.70
2018-09-30T21:11:26.800Z,23.07
2018-09-30T21:13:53.859Z,25.80
2018-09-30T21:16:20.823Z,21.70
2018-09-30T21:18:47.884Z,24.67
2018-09-30T21:21:14.755Z,25.27
2018-09-30T21:23:42.359Z,19.07
2018-09-30T21:26:09.398Z,22.80
2018-09-30T21:28:36.409Z,21.37
2018-09-30T21:31:03.530Z,25.07
2018-09-30T21:33:30.509Z,22.27
2018-09-30T21:35:57.504Z,28.27
2018-09-30T21:38:24.464Z,19.93
2018-09-30T21:40:51.408Z,26.70
2018-09-30T21:43:18.920Z,23.50
2018-09-30T21:45:45.909Z,25.07
2018-09-30T21:48:14.376Z,22.57
2018-09-30T21:50:41.352Z,24.00
2018-09-30T21:53:08.287Z,23.13
2018-09-30T21:55:35.277Z,22.90
2018-09-30T21:58:02.260Z,22.53
2018-09-30T22:00:34.825Z,22.03
2018-09-30T22:03:01.781Z,24.40
2018-09-30T22:05:28.763Z,23.50
2018-09-30T22:07:55.891Z,25.20
2018-09-30T22:10:23.052Z,24.33
2018-09-30T22:12:50.077Z,21.67
2018-09-30T22:15:17.165Z,26.73
2018-09-30T22:17:44.342Z,27.13
2018-09-30T22:20:11.708Z,25.40
2018-09-30T22:22:38.692Z,24.17
2018-09-30T22:25:06.488Z,24.20
2018-09-30T22:27:33.532Z,24.03
2018-09-30T22:30:00.492Z,22.73
2018-09-30T22:32:27.460Z,24.13
2018-09-30T22:34:54.430Z,27.97
2018-09-30T22:37:21.578Z,23.43
2018-09-30T22:39:48.625Z,23.73
2018-09-30T22:42:15.584Z,24.47
2018-09-30T22:44:42.681Z,25.93
2018-09-30T22:47:09.659Z,26.67
2018-09-30T22:49:36.603Z,25.77
2018-09-30T22:52:04.200Z,25.17
2018-09-30T22:54:31.135Z,26.70
2018-09-30T22:56:58.093Z,24.67
2018-09-30T22:59:24.997Z,22.90
2018-09-30T23:01:51.907Z,21.80
2018-09-30T23:04:19.558Z,23.97
2018-09-30T23:06:46.504Z,28.40
2018-09-30T23:09:13.680Z,23.83
2018-09-30T23:11:40.599Z,22.77
2018-09-30T23:14:07.584Z,26.77
2018-09-30T23:16:34.634Z,26.00
2018-09-30T23:19:01.594Z,27.27
2018-09-30T23:21:29.548Z,23.93
2018-09-30T23:23:56.516Z,25.00
2018-09-30T23:26:23.477Z,27.90
2018-09-30T23:28:50.443Z,27.17
2018-09-30T23:31:17.433Z,24.27
2018-09-30T23:33:44.369Z,24.53
2018-09-30T23:36:11.306Z,26.47
2018-09-30T23:38:38.428Z,22.60
2018-09-30T23:41:05.720Z,24.33
2018-09-30T23:43:33.227Z,22.57
2018-09-30T23:46:00.216Z,25.33
2018-09-30T23:48:27.170Z,29.87
2018-09-30T23:50:54.181Z,24.23
2018-09-30T23:53:21.280Z,24.20
2018-09-30T23:55:48.232Z,25.83
2018-09-30T23:58:15.175Z,26.53
